sensor_id;sensor_type;location;lat;lon;timestamp;P1;durP1;ratioP1;P2;durP2;ratioP2
51475;SDS011;37554;50.362;7.568;2024-02-21T00:00:13;4.97;;;2.13;;
51475;SDS011;37554;50.362;7.568;2024-02-21T00:02:39;3.97;;;2.60;;
51475;SDS011;37554;50.362;7.568;2024-02-21T00:05:05;5.60;;;2.13;;
51475;SDS011;37554;50.362;7.568;2024-02-21T00:07:31;3.28;;;1.95;;
51475;SDS011;37554;50.362;7.568;2024-02-21T00:09:56;2.88;;;2.22;;
51475;SDS011;37554;50.362;7.568;2024-02-21T00:12:22;5.10;;;2.10;;
51475;SDS011;37554;50.362;7.568;2024-02-21T00:14:47;4.28;;;2.00;;
51475;SDS011;37554;50.362;7.568;2024-02-21T00:17:13;3.78;;;1.60;;
51475;SDS011;37554;50.362;7.568;2024-02-21T00:19:39;5.28;;;2.17;;
51475;SDS011;37554;50.362;7.568;2024-02-21T00:22:04;3.42;;;1.95;;
51475;SDS011;37554;50.362;7.568;2024-02-21T00:24:30;3.53;;;1.65;;
51475;SDS011;37554;50.362;7.568;2024-02-21T00:26:56;4.32;;;2.08;;
51475;SDS011;37554;50.362;7.568;2024-02-21T00:29:21;5.88;;;2.05;;
51475;SDS011;37554;50.362;7.568;2024-02-21T00:31:47;3.92;;;1.92;;
51475;SDS011;37554;50.362;7.568;2024-02-21T00:34:14;3.08;;;1.63;;
51475;SDS011;37554;50.362;7.568;2024-02-21T00:36:39;4.88;;;1.90;;
51475;SDS011;37554;50.362;7.568;2024-02-21T00:39:05;3.95;;;1.70;;
51475;SDS011;37554;50.362;7.568;2024-02-21T00:41:31;5.65;;;2.28;;
51475;SDS011;37554;50.362;7.568;2024-02-21T00:43:57;4.00;;;1.80;;
51475;SDS011;37554;50.362;7.568;2024-02-21T00:46:22;7.22;;;2.10;;
51475;SDS011;37554;50.362;7.568;2024-02-21T00:48:48;2.92;;;1.85;;
51475;SDS011;37554;50.362;7.568;2024-02-21T00:51:14;3.85;;;1.95;;
51475;SDS011;37554;50.362;7.568;2024-02-21T00:53:40;3.80;;;2.08;;
51475;SDS011;37554;50.362;7.568;2024-02-21T00:56:06;4.18;;;1.98;;
51475;SDS011;37554;50.362;7.568;2024-02-21T00:58:32;4.75;;;2.00;;
51475;SDS011;37554;50.362;7.568;2024-02-21T01:00:58;3.97;;;1.67;;
51475;SDS011;37554;50.362;7.568;2024-02-21T01:03:23;5.38;;;1.88;;
51475;SDS011;37554;50.362;7.568;2024-02-21T01:05:49;3.45;;;1.98;;
51475;SDS011;37554;50.362;7.568;2024-02-21T01:08:14;2.85;;;1.48;;
51475;SDS011;37554;50.362;7.568;2024-02-21T01:10:40;3.20;;;1.77;;
51475;SDS011;37554;50.362;7.568;2024-02-21T01:13:06;4.00;;;1.80;;
51475;SDS011;37554;50.362;7.568;2024-02-21T01:15:32;3.60;;;1.33;;
51475;SDS011;37554;50.362;7.568;2024-02-21T01:17:58;3.58;;;1.67;;
51475;SDS011;37554;50.362;7.568;2024-02-21T01:20:24;2.53;;;1.25;;
51475;SDS011;37554;50.362;7.568;2024-02-21T01:22:49;3.55;;;1.75;;
51475;SDS011;37554;50.362;7.568;2024-02-21T01:25:15;4.40;;;1.67;;
51475;SDS011;37554;50.362;7.568;2024-02-21T01:27:41;3.70;;;1.55;;
51475;SDS011;37554;50.362;7.568;2024-02-21T01:30:08;3.88;;;1.77;;
51475;SDS011;37554;50.362;7.568;2024-02-21T01:32:35;4.07;;;1.80;;
51475;SDS011;37554;50.362;7.568;2024-02-21T01:35:01;3.53;;;1.80;;
51475;SDS011;37554;50.362;7.568;2024-02-21T01:37:27;3.90;;;1.63;;
51475;SDS011;37554;50.362;7.568;2024-02-21T01:39:52;5.68;;;1.60;;
51475;SDS011;37554;50.362;7.568;2024-02-21T01:42:18;2.15;;;1.67;;
51475;SDS011;37554;50.362;7.568;2024-02-21T01:44:44;4.25;;;1.73;;
51475;SDS011;37554;50.362;7.568;2024-02-21T01:47:10;4.53;;;1.55;;
51475;SDS011;37554;50.362;7.568;2024-02-21T01:49:38;3.30;;;1.58;;
51475;SDS011;37554;50.362;7.568;2024-02-21T01:52:05;3.35;;;1.65;;
51475;SDS011;37554;50.362;7.568;2024-02-21T01:54:31;4.85;;;1.92;;
51475;SDS011;37554;50.362;7.568;2024-02-21T01:56:57;4.78;;;1.98;;
51475;SDS011;37554;50.362;7.568;2024-02-21T01:59:23;4.07;;;1.23;;
51475;SDS011;37554;50.362;7.568;2024-02-21T02:01:50;4.40;;;1.80;;
51475;SDS011;37554;50.362;7.568;2024-02-21T02:04:16;5.32;;;1.75;;
51475;SDS011;37554;50.362;7.568;2024-02-21T02:06:42;5.20;;;1.85;;
51475;SDS011;37554;50.362;7.568;2024-02-21T02:09:08;3.90;;;1.75;;
51475;SDS011;37554;50.362;7.568;2024-02-21T02:11:34;5.03;;;1.70;;
51475;SDS011;37554;50.362;7.568;2024-02-21T02:14:00;4.00;;;1.92;;
51475;SDS011;37554;50.362;7.568;2024-02-21T02:16:26;5.07;;;1.65;;
51475;SDS011;37554;50.362;7.568;2024-02-21T02:18:52;5.68;;;1.92;;
51475;SDS011;37554;50.362;7.568;2024-02-21T02:21:30;3.13;;;1.67;;
51475;SDS011;37554;50.362;7.568;2024-02-21T02:23:59;3.53;;;1.50;;
51475;SDS011;37554;50.362;7.568;2024-02-21T02:26:24;4.90;;;1.67;;
51475;SDS011;37554;50.362;7.568;2024-02-21T02:28:50;5.88;;;2.10;;
51475;SDS011;37554;50.362;7.568;2024-02-21T02:31:15;3.60;;;1.70;;
51475;SDS011;37554;50.362;7.568;2024-02-21T02:33:44;2.47;;;1.40;;
51475;SDS011;37554;50.362;7.568;2024-02-21T02:36:10;4.25;;;1.67;;
51475;SDS011;37554;50.362;7.568;2024-02-21T02:38:35;3.30;;;1.73;;
51475;SDS011;37554;50.362;7.568;2024-02-21T02:41:02;5.57;;;1.70;;
51475;SDS011;37554;50.362;7.568;2024-02-21T02:43:27;6.90;;;1.92;;
51475;SDS011;37554;50.362;7.568;2024-02-21T02:45:53;3.63;;;1.55;;
51475;SDS011;37554;50.362;7.568;2024-02-21T02:48:18;2.65;;;1.40;;
51475;SDS011;37554;50.362;7.568;2024-02-21T02:50:44;3.60;;;1.40;;
51475;SDS011;37554;50.362;7.568;2024-02-21T02:53:11;4.93;;;1.90;;
51475;SDS011;37554;50.362;7.568;2024-02-21T02:55:36;4.05;;;1.55;;
51475;SDS011;37554;50.362;7.568;2024-02-21T02:58:02;3.65;;;1.80;;
51475;SDS011;37554;50.362;7.568;2024-02-21T03:00:27;4.50;;;1.55;;
51475;SDS011;37554;50.362;7.568;2024-02-21T03:02:53;5.47;;;1.55;;
51475;SDS011;37554;50.362;7.568;2024-02-21T03:05:19;2.92;;;1.63;;
51475;SDS011;37554;50.362;7.568;2024-02-21T03:07:46;3.40;;;1.83;;
51475;SDS011;37554;50.362;7.568;2024-02-21T03:10:13;4.75;;;1.83;;
51475;SDS011;37554;50.362;7.568;2024-02-21T03:12:41;5.05;;;2.10;;
51475;SDS011;37554;50.362;7.568;2024-02-21T03:15:07;4.82;;;1.75;;
51475;SDS011;37554;50.362;7.568;2024-02-21T03:17:33;3.45;;;1.70;;
51475;SDS011;37554;50.362;7.568;2024-02-21T03:19:59;4.63;;;1.75;;
51475;SDS011;37554;50.362;7.568;2024-02-21T03:22:25;4.57;;;1.40;;
51475;SDS011;37554;50.362;7.568;2024-02-21T03:24:51;4.97;;;1.50;;
51475;SDS011;37554;50.362;7.568;2024-02-21T03:27:17;4.93;;;1.63;;
51475;SDS011;37554;50.362;7.568;2024-02-21T03:29:42;5.18;;;1.55;;
51475;SDS011;37554;50.362;7.568;2024-02-21T03:32:08;3.70;;;1.50;;
51475;SDS011;37554;50.362;7.568;2024-02-21T03:34:34;5.68;;;1.65;;
51475;SDS011;37554;50.362;7.568;2024-02-21T03:37:00;5.50;;;1.63;;
51475;SDS011;37554;50.362;7.568;2024-02-21T03:39:26;6.32;;;1.77;;
51475;SDS011;37554;50.362;7.568;2024-02-21T03:41:51;2.42;;;1.35;;
51475;SDS011;37554;50.362;7.568;2024-02-21T03:44:17;4.60;;;1.75;;
51475;SDS011;37554;50.362;7.568;2024-02-21T03:46:42;5.95;;;1.70;;
51475;SDS011;37554;50.362;7.568;2024-02-21T03:49:08;5.32;;;1.63;;
51475;SDS011;37554;50.362;7.568;2024-02-21T03:51:33;3.78;;;1.70;;
51475;SDS011;37554;50.362;7.568;2024-02-21T03:53:59;6.63;;;1.98;;
51475;SDS011;37554;50.362;7.568;2024-02-21T03:56:24;5.18;;;1.58;;
51475;SDS011;37554;50.362;7.568;2024-02-21T03:58:50;3.58;;;1.48;;
51475;SDS011;37554;50.362;7.568;2024-02-21T04:01:16;5.88;;;1.75;;
51475;SDS011;37554;50.362;7.568;2024-02-21T04:03:42;3.13;;;1.20;;
51475;SDS011;37554;50.362;7.568;2024-02-21T04:06:09;5.38;;;1.60;;
51475;SDS011;37554;50.362;7.568;2024-02-21T04:08:34;4.03;;;1.40;;
51475;SDS011;37554;50.362;7.568;2024-02-21T04:11:00;5.63;;;1.80;;
51475;SDS011;37554;50.362;7.568;2024-02-21T04:13:26;3.63;;;1.25;;
51475;SDS011;37554;50.362;7.568;2024-02-21T04:15:52;3.97;;;1.30;;
51475;SDS011;37554;50.362;7.568;2024-02-21T04:18:17;4.53;;;1.63;;
51475;SDS011;37554;50.362;7.568;2024-02-21T04:20:43;3.85;;;1.60;;
51475;SDS011;37554;50.362;7.568;2024-02-21T04:23:08;4.68;;;1.60;;
51475;SDS011;37554;50.362;7.568;2024-02-21T04:25:34;4.32;;;1.80;;
51475;SDS011;37554;50.362;7.568;2024-02-21T04:28:00;4.50;;;1.50;;
51475;SDS011;37554;50.362;7.568;2024-02-21T04:30:25;6.15;;;1.70;;
51475;SDS011;37554;50.362;7.568;2024-02-21T04:32:51;2.90;;;1.35;;
51475;SDS011;37554;50.362;7.568;2024-02-21T04:35:16;5.45;;;1.65;;
51475;SDS011;37554;50.362;7.568;2024-02-21T04:37:42;3.05;;;1.35;;
51475;SDS011;37554;50.362;7.568;2024-02-21T04:40:08;4.38;;;1.55;;
51475;SDS011;37554;50.362;7.568;2024-02-21T04:42:34;5.93;;;1.38;;
51475;SDS011;37554;50.362;7.568;2024-02-21T04:45:00;5.63;;;1.63;;
51475;SDS011;37554;50.362;7.568;2024-02-21T04:47:25;6.18;;;1.60;;
51475;SDS011;37554;50.362;7.568;2024-02-21T04:49:52;2.50;;;1.10;;
51475;SDS011;37554;50.362;7.568;2024-02-21T04:52:17;3.35;;;1.40;;
51475;SDS011;37554;50.362;7.568;2024-02-21T04:54:43;3.30;;;1.30;;
51475;SDS011;37554;50.362;7.568;2024-02-21T04:57:09;3.45;;;1.50;;
51475;SDS011;37554;50.362;7.568;2024-02-21T04:59:35;3.80;;;1.50;;
51475;SDS011;37554;50.362;7.568;2024-02-21T05:02:01;4.88;;;1.50;;
51475;SDS011;37554;50.362;7.568;2024-02-21T05:04:27;5.78;;;1.88;;
51475;SDS011;37554;50.362;7.568;2024-02-21T05:06:52;3.35;;;1.33;;
51475;SDS011;37554;50.362;7.568;2024-02-21T05:09:18;4.72;;;1.50;;
51475;SDS011;37554;50.362;7.568;2024-02-21T05:11:43;5.22;;;1.52;;
51475;SDS011;37554;50.362;7.568;2024-02-21T05:14:09;4.15;;;1.35;;
51475;SDS011;37554;50.362;7.568;2024-02-21T05:16:35;5.05;;;1.80;;
51475;SDS011;37554;50.362;7.568;2024-02-21T05:19:00;5.10;;;1.52;;
51475;SDS011;37554;50.362;7.568;2024-02-21T05:21:26;4.75;;;1.65;;
51475;SDS011;37554;50.362;7.568;2024-02-21T05:23:53;3.92;;;1.67;;
51475;SDS011;37554;50.362;7.568;2024-02-21T05:26:25;3.60;;;1.23;;
51475;SDS011;37554;50.362;7.568;2024-02-21T05:28:52;4.32;;;1.63;;
51475;SDS011;37554;50.362;7.568;2024-02-21T05:31:18;7.22;;;1.75;;
51475;SDS011;37554;50.362;7.568;2024-02-21T05:33:45;3.63;;;1.65;;
51475;SDS011;37554;50.362;7.568;2024-02-21T05:36:11;4.72;;;1.63;;
51475;SDS011;37554;50.362;7.568;2024-02-21T05:38:36;4.35;;;1.55;;
51475;SDS011;37554;50.362;7.568;2024-02-21T05:41:02;5.65;;;1.52;;
51475;SDS011;37554;50.362;7.568;2024-02-21T05:43:28;3.47;;;1.35;;
51475;SDS011;37554;50.362;7.568;2024-02-21T05:45:54;6.78;;;2.03;;
51475;SDS011;37554;50.362;7.568;2024-02-21T05:48:20;4.10;;;1.58;;
51475;SDS011;37554;50.362;7.568;2024-02-21T05:50:46;3.13;;;1.45;;
51475;SDS011;37554;50.362;7.568;2024-02-21T05:53:12;6.13;;;1.63;;
51475;SDS011;37554;50.362;7.568;2024-02-21T05:55:38;4.07;;;1.27;;
51475;SDS011;37554;50.362;7.568;2024-02-21T05:58:04;4.80;;;1.70;;
51475;SDS011;37554;50.362;7.568;2024-02-21T06:00:30;4.45;;;1.88;;
51475;SDS011;37554;50.362;7.568;2024-02-21T06:02:57;4.88;;;1.55;;
51475;SDS011;37554;50.362;7.568;2024-02-21T06:05:23;4.40;;;1.50;;
51475;SDS011;37554;50.362;7.568;2024-02-21T06:07:49;4.30;;;1.40;;
51475;SDS011;37554;50.362;7.568;2024-02-21T06:10:14;3.20;;;1.30;;
51475;SDS011;37554;50.362;7.568;2024-02-21T06:12:40;2.72;;;1.50;;
51475;SDS011;37554;50.362;7.568;2024-02-21T06:15:06;2.53;;;1.33;;
51475;SDS011;37554;50.362;7.568;2024-02-21T06:17:32;5.30;;;1.70;;
51475;SDS011;37554;50.362;7.568;2024-02-21T06:19:58;5.80;;;1.45;;
51475;SDS011;37554;50.362;7.568;2024-02-21T06:22:23;5.75;;;1.60;;
51475;SDS011;37554;50.362;7.568;2024-02-21T06:24:49;3.47;;;1.60;;
51475;SDS011;37554;50.362;7.568;2024-02-21T06:27:15;6.18;;;1.75;;
51475;SDS011;37554;50.362;7.568;2024-02-21T06:29:41;4.70;;;1.52;;
51475;SDS011;37554;50.362;7.568;2024-02-21T06:32:07;3.67;;;1.52;;
51475;SDS011;37554;50.362;7.568;2024-02-21T06:34:33;3.67;;;1.38;;
51475;SDS011;37554;50.362;7.568;2024-02-21T06:36:58;4.40;;;1.48;;
51475;SDS011;37554;50.362;7.568;2024-02-21T06:39:24;4.43;;;1.63;;
51475;SDS011;37554;50.362;7.568;2024-02-21T06:41:50;6.28;;;1.70;;
51475;SDS011;37554;50.362;7.568;2024-02-21T06:44:16;4.35;;;1.80;;
51475;SDS011;37554;50.362;7.568;2024-02-21T06:46:42;4.22;;;1.65;;
51475;SDS011;37554;50.362;7.568;2024-02-21T06:49:08;4.47;;;1.58;;
51475;SDS011;37554;50.362;7.568;2024-02-21T06:51:34;4.03;;;1.52;;
51475;SDS011;37554;50.362;7.568;2024-02-21T06:53:59;3.85;;;1.55;;
51475;SDS011;37554;50.362;7.568;2024-02-21T06:56:25;4.05;;;1.52;;
51475;SDS011;37554;50.362;7.568;2024-02-21T06:58:53;3.83;;;1.77;;
51475;SDS011;37554;50.362;7.568;2024-02-21T07:01:22;3.30;;;1.45;;
51475;SDS011;37554;50.362;7.568;2024-02-21T07:03:47;2.60;;;1.25;;
51475;SDS011;37554;50.362;7.568;2024-02-21T07:06:13;5.22;;;2.08;;
51475;SDS011;37554;50.362;7.568;2024-02-21T07:08:39;8.25;;;2.60;;
51475;SDS011;37554;50.362;7.568;2024-02-21T07:11:04;5.63;;;2.72;;
51475;SDS011;37554;50.362;7.568;2024-02-21T07:13:30;9.27;;;2.88;;
51475;SDS011;37554;50.362;7.568;2024-02-21T07:15:56;8.93;;;3.42;;
51475;SDS011;37554;50.362;7.568;2024-02-21T07:18:22;10.38;;;2.88;;
51475;SDS011;37554;50.362;7.568;2024-02-21T07:20:50;7.03;;;2.70;;
51475;SDS011;37554;50.362;7.568;2024-02-21T07:23:16;5.32;;;2.20;;
51475;SDS011;37554;50.362;7.568;2024-02-21T07:25:42;6.72;;;2.10;;
51475;SDS011;37554;50.362;7.568;2024-02-21T07:28:07;7.03;;;2.30;;
51475;SDS011;37554;50.362;7.568;2024-02-21T07:30:33;5.15;;;2.53;;
51475;SDS011;37554;50.362;7.568;2024-02-21T07:32:59;7.68;;;2.53;;
51475;SDS011;37554;50.362;7.568;2024-02-21T07:35:24;5.18;;;1.95;;
51475;SDS011;37554;50.362;7.568;2024-02-21T07:37:50;4.20;;;1.83;;
51475;SDS011;37554;50.362;7.568;2024-02-21T07:40:16;7.55;;;2.42;;
51475;SDS011;37554;50.362;7.568;2024-02-21T07:42:42;9.35;;;2.60;;
51475;SDS011;37554;50.362;7.568;2024-02-21T07:45:08;5.00;;;2.03;;
51475;SDS011;37554;50.362;7.568;2024-02-21T07:47:35;5.57;;;2.08;;
51475;SDS011;37554;50.362;7.568;2024-02-21T07:50:02;6.38;;;2.38;;
51475;SDS011;37554;50.362;7.568;2024-02-21T07:52:28;4.65;;;1.80;;
51475;SDS011;37554;50.362;7.568;2024-02-21T07:54:54;3.90;;;1.98;;
51475;SDS011;37554;50.362;7.568;2024-02-21T07:57:20;3.92;;;1.80;;
51475;SDS011;37554;50.362;7.568;2024-02-21T07:59:46;5.65;;;2.05;;
51475;SDS011;37554;50.362;7.568;2024-02-21T08:02:14;5.75;;;2.72;;
51475;SDS011;37554;50.362;7.568;2024-02-21T08:04:40;5.40;;;2.22;;
51475;SDS011;37554;50.362;7.568;2024-02-21T08:07:06;6.53;;;1.98;;
51475;SDS011;37554;50.362;7.568;2024-02-21T08:09:32;4.50;;;1.65;;
51475;SDS011;37554;50.362;7.568;2024-02-21T08:12:00;5.18;;;2.08;;
51475;SDS011;37554;50.362;7.568;2024-02-21T08:14:26;5.28;;;2.00;;
51475;SDS011;37554;50.362;7.568;2024-02-21T08:16:51;4.88;;;2.10;;
51475;SDS011;37554;50.362;7.568;2024-02-21T08:19:20;7.40;;;2.13;;
51475;SDS011;37554;50.362;7.568;2024-02-21T08:21:47;5.68;;;1.98;;
51475;SDS011;37554;50.362;7.568;2024-02-21T08:24:13;4.53;;;1.80;;
51475;SDS011;37554;50.362;7.568;2024-02-21T08:26:43;3.92;;;1.77;;
51475;SDS011;37554;50.362;7.568;2024-02-21T08:29:12;5.63;;;1.95;;
51475;SDS011;37554;50.362;7.568;2024-02-21T08:31:38;6.15;;;2.15;;
51475;SDS011;37554;50.362;7.568;2024-02-21T08:34:03;4.32;;;1.50;;
51475;SDS011;37554;50.362;7.568;2024-02-21T08:36:30;3.03;;;1.58;;
51475;SDS011;37554;50.362;7.568;2024-02-21T08:38:57;4.47;;;1.75;;
51475;SDS011;37554;50.362;7.568;2024-02-21T08:41:23;4.15;;;1.75;;
51475;SDS011;37554;50.362;7.568;2024-02-21T08:43:52;3.97;;;2.03;;
51475;SDS011;37554;50.362;7.568;2024-02-21T08:46:22;5.57;;;1.90;;
51475;SDS011;37554;50.362;7.568;2024-02-21T08:48:49;7.03;;;2.65;;
51475;SDS011;37554;50.362;7.568;2024-02-21T08:51:16;6.50;;;2.40;;
51475;SDS011;37554;50.362;7.568;2024-02-21T08:53:42;7.57;;;2.45;;
51475;SDS011;37554;50.362;7.568;2024-02-21T08:56:08;8.93;;;2.40;;
51475;SDS011;37554;50.362;7.568;2024-02-21T08:58:34;4.40;;;2.20;;
51475;SDS011;37554;50.362;7.568;2024-02-21T09:01:04;7.63;;;2.47;;
51475;SDS011;37554;50.362;7.568;2024-02-21T09:03:32;5.07;;;1.80;;
51475;SDS011;37554;50.362;7.568;2024-02-21T09:05:58;6.05;;;1.90;;
51475;SDS011;37554;50.362;7.568;2024-02-21T09:08:24;5.35;;;1.83;;
51475;SDS011;37554;50.362;7.568;2024-02-21T09:10:50;6.43;;;1.98;;
51475;SDS011;37554;50.362;7.568;2024-02-21T09:13:15;4.15;;;1.70;;
51475;SDS011;37554;50.362;7.568;2024-02-21T09:15:42;4.95;;;1.95;;
51475;SDS011;37554;50.362;7.568;2024-02-21T09:18:08;5.00;;;1.50;;
51475;SDS011;37554;50.362;7.568;2024-02-21T09:20:33;4.72;;;1.52;;
51475;SDS011;37554;50.362;7.568;2024-02-21T09:22:59;3.80;;;1.42;;
51475;SDS011;37554;50.362;7.568;2024-02-21T09:25:24;4.28;;;1.70;;
51475;SDS011;37554;50.362;7.568;2024-02-21T09:27:57;3.72;;;1.63;;
51475;SDS011;37554;50.362;7.568;2024-02-21T09:30:23;4.95;;;1.63;;
51475;SDS011;37554;50.362;7.568;2024-02-21T09:32:49;3.72;;;1.40;;
51475;SDS011;37554;50.362;7.568;2024-02-21T09:35:14;4.93;;;1.63;;
51475;SDS011;37554;50.362;7.568;2024-02-21T09:37:40;4.47;;;1.70;;
51475;SDS011;37554;50.362;7.568;2024-02-21T09:40:06;5.00;;;1.48;;
51475;SDS011;37554;50.362;7.568;2024-02-21T09:42:38;5.35;;;1.50;;
51475;SDS011;37554;50.362;7.568;2024-02-21T09:45:07;3.17;;;1.33;;
51475;SDS011;37554;50.362;7.568;2024-02-21T09:50:13;5.20;;;1.50;;
51475;SDS011;37554;50.362;7.568;2024-02-21T09:52:40;4.05;;;1.52;;
51475;SDS011;37554;50.362;7.568;2024-02-21T09:55:07;5.25;;;1.67;;
51475;SDS011;37554;50.362;7.568;2024-02-21T09:57:35;4.10;;;2.00;;
51475;SDS011;37554;50.362;7.568;2024-02-21T10:00:02;4.70;;;1.52;;
51475;SDS011;37554;50.362;7.568;2024-02-21T10:02:32;3.75;;;1.30;;
51475;SDS011;37554;50.362;7.568;2024-02-21T10:04:58;3.03;;;1.13;;
51475;SDS011;37554;50.362;7.568;2024-02-21T10:07:24;3.72;;;1.50;;
51475;SDS011;37554;50.362;7.568;2024-02-21T10:10:00;2.80;;;1.40;;
51475;SDS011;37554;50.362;7.568;2024-02-21T10:12:29;5.55;;;1.98;;
51475;SDS011;37554;50.362;7.568;2024-02-21T10:15:04;3.55;;;1.60;;
51475;SDS011;37554;50.362;7.568;2024-02-21T10:17:34;4.00;;;1.38;;
51475;SDS011;37554;50.362;7.568;2024-02-21T10:20:10;4.38;;;1.27;;
51475;SDS011;37554;50.362;7.568;2024-02-21T10:22:37;6.72;;;2.17;;
51475;SDS011;37554;50.362;7.568;2024-02-21T10:25:08;3.30;;;1.30;;
51475;SDS011;37554;50.362;7.568;2024-02-21T10:27:33;4.63;;;1.40;;
51475;SDS011;37554;50.362;7.568;2024-02-21T10:29:59;4.55;;;1.60;;
51475;SDS011;37554;50.362;7.568;2024-02-21T10:32:25;3.38;;;1.30;;
51475;SDS011;37554;50.362;7.568;2024-02-21T10:35:00;4.13;;;1.48;;
51475;SDS011;37554;50.362;7.568;2024-02-21T10:37:26;3.35;;;1.30;;
51475;SDS011;37554;50.362;7.568;2024-02-21T10:39:53;3.25;;;1.25;;
51475;SDS011;37554;50.362;7.568;2024-02-21T10:42:19;3.75;;;1.42;;
51475;SDS011;37554;50.362;7.568;2024-02-21T10:44:46;4.75;;;1.50;;
51475;SDS011;37554;50.362;7.568;2024-02-21T10:47:18;3.75;;;1.23;;
51475;SDS011;37554;50.362;7.568;2024-02-21T10:49:47;3.05;;;1.42;;
51475;SDS011;37554;50.362;7.568;2024-02-21T10:55:03;4.45;;;1.40;;
51475;SDS011;37554;50.362;7.568;2024-02-21T10:57:34;2.83;;;1.13;;
51475;SDS011;37554;50.362;7.568;2024-02-21T11:00:03;3.03;;;1.10;;
51475;SDS011;37554;50.362;7.568;2024-02-21T11:02:33;5.78;;;1.52;;
51475;SDS011;37554;50.362;7.568;2024-02-21T11:04:59;4.18;;;1.63;;
51475;SDS011;37554;50.362;7.568;2024-02-21T11:07:28;5.15;;;1.30;;
51475;SDS011;37554;50.362;7.568;2024-02-21T11:09:55;4.88;;;1.60;;
51475;SDS011;37554;50.362;7.568;2024-02-21T11:12:21;5.35;;;1.65;;
51475;SDS011;37554;50.362;7.568;2024-02-21T11:14:47;3.92;;;1.30;;
51475;SDS011;37554;50.362;7.568;2024-02-21T11:19:51;4.22;;;1.52;;
51475;SDS011;37554;50.362;7.568;2024-02-21T11:22:17;3.83;;;1.40;;
51475;SDS011;37554;50.362;7.568;2024-02-21T11:24:44;3.97;;;1.60;;
51475;SDS011;37554;50.362;7.568;2024-02-21T11:29:45;4.50;;;1.83;;
51475;SDS011;37554;50.362;7.568;2024-02-21T11:32:15;4.30;;;1.80;;
51475;SDS011;37554;50.362;7.568;2024-02-21T11:34:58;3.72;;;1.50;;
51475;SDS011;37554;50.362;7.568;2024-02-21T11:37:31;4.55;;;1.80;;
51475;SDS011;37554;50.362;7.568;2024-02-21T11:39:58;3.78;;;1.48;;
51475;SDS011;37554;50.362;7.568;2024-02-21T11:42:25;2.80;;;1.48;;
51475;SDS011;37554;50.362;7.568;2024-02-21T11:44:53;5.05;;;1.80;;
51475;SDS011;37554;50.362;7.568;2024-02-21T11:47:21;3.70;;;1.80;;
51475;SDS011;37554;50.362;7.568;2024-02-21T11:49:48;3.78;;;1.45;;
51475;SDS011;37554;50.362;7.568;2024-02-21T11:52:24;3.38;;;1.58;;
51475;SDS011;37554;50.362;7.568;2024-02-21T11:54:50;3.75;;;1.90;;
51475;SDS011;37554;50.362;7.568;2024-02-21T11:57:17;4.07;;;1.63;;
51475;SDS011;37554;50.362;7.568;2024-02-21T11:59:44;4.45;;;1.77;;
51475;SDS011;37554;50.362;7.568;2024-02-21T12:02:10;4.90;;;2.00;;
51475;SDS011;37554;50.362;7.568;2024-02-21T12:04:36;3.47;;;1.65;;
51475;SDS011;37554;50.362;7.568;2024-02-21T12:07:02;3.80;;;1.50;;
51475;SDS011;37554;50.362;7.568;2024-02-21T12:09:29;4.18;;;1.80;;
51475;SDS011;37554;50.362;7.568;2024-02-21T12:11:59;2.80;;;1.02;;
51475;SDS011;37554;50.362;7.568;2024-02-21T12:14:30;6.10;;;1.40;;
51475;SDS011;37554;50.362;7.568;2024-02-21T12:16:57;2.58;;;1.52;;
51475;SDS011;37554;50.362;7.568;2024-02-21T12:19:23;6.40;;;1.67;;
51475;SDS011;37554;50.362;7.568;2024-02-21T12:21:49;4.28;;;1.42;;
51475;SDS011;37554;50.362;7.568;2024-02-21T12:24:23;3.50;;;1.27;;
51475;SDS011;37554;50.362;7.568;2024-02-21T12:26:50;3.30;;;1.50;;
51475;SDS011;37554;50.362;7.568;2024-02-21T12:29:17;3.20;;;1.30;;
51475;SDS011;37554;50.362;7.568;2024-02-21T12:31:43;3.83;;;1.58;;
51475;SDS011;37554;50.362;7.568;2024-02-21T12:34:10;3.60;;;1.40;;
51475;SDS011;37554;50.362;7.568;2024-02-21T12:36:36;3.25;;;1.15;;
51475;SDS011;37554;50.362;7.568;2024-02-21T12:39:07;3.97;;;1.57;;
51475;SDS011;37554;50.362;7.568;2024-02-21T12:41:33;3.25;;;1.20;;
51475;SDS011;37554;50.362;7.568;2024-02-21T12:44:03;3.78;;;1.30;;
51475;SDS011;37554;50.362;7.568;2024-02-21T12:46:33;5.22;;;1.38;;
51475;SDS011;37554;50.362;7.568;2024-02-21T12:48:59;3.63;;;1.20;;
51475;SDS011;37554;50.362;7.568;2024-02-21T12:51:25;2.55;;;0.95;;
51475;SDS011;37554;50.362;7.568;2024-02-21T12:53:50;3.53;;;1.20;;
51475;SDS011;37554;50.362;7.568;2024-02-21T12:56:16;3.33;;;1.25;;
51475;SDS011;37554;50.362;7.568;2024-02-21T12:58:41;4.28;;;1.35;;
51475;SDS011;37554;50.362;7.568;2024-02-21T13:01:07;3.22;;;1.17;;
51475;SDS011;37554;50.362;7.568;2024-02-21T13:03:34;2.67;;;1.15;;
51475;SDS011;37554;50.362;7.568;2024-02-21T13:05:59;2.20;;;0.90;;
51475;SDS011;37554;50.362;7.568;2024-02-21T13:08:25;3.75;;;1.27;;
51475;SDS011;37554;50.362;7.568;2024-02-21T13:10:51;2.65;;;1.10;;
51475;SDS011;37554;50.362;7.568;2024-02-21T13:13:16;3.00;;;1.25;;
51475;SDS011;37554;50.362;7.568;2024-02-21T13:15:42;3.13;;;1.30;;
51475;SDS011;37554;50.362;7.568;2024-02-21T13:18:08;4.35;;;1.30;;
51475;SDS011;37554;50.362;7.568;2024-02-21T13:20:35;3.05;;;1.30;;
51475;SDS011;37554;50.362;7.568;2024-02-21T13:23:01;3.78;;;1.42;;
51475;SDS011;37554;50.362;7.568;2024-02-21T13:25:27;3.53;;;1.27;;
51475;SDS011;37554;50.362;7.568;2024-02-21T13:27:53;3.10;;;1.10;;
51475;SDS011;37554;50.362;7.568;2024-02-21T13:30:18;2.47;;;1.08;;
51475;SDS011;37554;50.362;7.568;2024-02-21T13:32:44;2.53;;;1.13;;
51475;SDS011;37554;50.362;7.568;2024-02-21T13:35:13;3.22;;;0.95;;
51475;SDS011;37554;50.362;7.568;2024-02-21T13:37:39;4.65;;;1.23;;
51475;SDS011;37554;50.362;7.568;2024-02-21T13:40:05;2.58;;;0.85;;
51475;SDS011;37554;50.362;7.568;2024-02-21T13:42:33;2.28;;;1.10;;
51475;SDS011;37554;50.362;7.568;2024-02-21T13:45:00;3.47;;;1.23;;
51475;SDS011;37554;50.362;7.568;2024-02-21T13:47:26;2.85;;;1.30;;
51475;SDS011;37554;50.362;7.568;2024-02-21T13:49:51;3.97;;;1.48;;
51475;SDS011;37554;50.362;7.568;2024-02-21T13:52:17;4.32;;;1.50;;
51475;SDS011;37554;50.362;7.568;2024-02-21T13:54:45;7.47;;;1.80;;
51475;SDS011;37554;50.362;7.568;2024-02-21T13:57:12;10.55;;;1.63;;
51475;SDS011;37554;50.362;7.568;2024-02-21T13:59:39;4.43;;;1.52;;
51475;SDS011;37554;50.362;7.568;2024-02-21T14:02:05;5.32;;;1.33;;
51475;SDS011;37554;50.362;7.568;2024-02-21T14:04:33;4.93;;;1.60;;
51475;SDS011;37554;50.362;7.568;2024-02-21T14:06:59;3.83;;;1.38;;
51475;SDS011;37554;50.362;7.568;2024-02-21T14:09:25;5.07;;;1.58;;
51475;SDS011;37554;50.362;7.568;2024-02-21T14:11:51;3.33;;;1.20;;
51475;SDS011;37554;50.362;7.568;2024-02-21T14:14:17;3.60;;;1.42;;
51475;SDS011;37554;50.362;7.568;2024-02-21T14:16:42;2.72;;;1.30;;
51475;SDS011;37554;50.362;7.568;2024-02-21T14:19:08;3.90;;;1.38;;
51475;SDS011;37554;50.362;7.568;2024-02-21T14:21:34;4.07;;;1.70;;
51475;SDS011;37554;50.362;7.568;2024-02-21T14:24:03;3.08;;;1.10;;
51475;SDS011;37554;50.362;7.568;2024-02-21T14:26:29;4.35;;;1.63;;
51475;SDS011;37554;50.362;7.568;2024-02-21T14:28:56;3.90;;;1.25;;
51475;SDS011;37554;50.362;7.568;2024-02-21T14:31:22;3.00;;;1.15;;
51475;SDS011;37554;50.362;7.568;2024-02-21T14:33:48;4.45;;;1.30;;
51475;SDS011;37554;50.362;7.568;2024-02-21T14:36:13;3.63;;;1.00;;
51475;SDS011;37554;50.362;7.568;2024-02-21T14:38:43;4.25;;;1.10;;
51475;SDS011;37554;50.362;7.568;2024-02-21T14:41:09;2.92;;;1.20;;
51475;SDS011;37554;50.362;7.568;2024-02-21T14:43:37;2.45;;;1.05;;
51475;SDS011;37554;50.362;7.568;2024-02-21T14:46:03;2.50;;;0.80;;
51475;SDS011;37554;50.362;7.568;2024-02-21T14:48:30;2.83;;;0.90;;
51475;SDS011;37554;50.362;7.568;2024-02-21T14:50:57;2.65;;;1.00;;
51475;SDS011;37554;50.362;7.568;2024-02-21T14:53:23;3.08;;;1.13;;